createdAt,value
2022-12-08T00:01:25.637Z,94445.34
2022-12-08T00:03:53.184Z,94450.16
2022-12-08T00:06:44.668Z,94452.84
2022-12-08T00:09:38.335Z,94464.03
2022-12-08T00:12:12.255Z,94455.50
2022-12-08T00:14:42.264Z,94454.44
2022-12-08T00:17:11.959Z,94456.53
2022-12-08T00:19:40.352Z,94450.66
2022-12-08T00:22:09.006Z,94458.13
2022-12-08T00:24:41.511Z,94467.22
2022-12-08T00:27:09.963Z,94462.94
2022-12-08T00:29:37.230Z,94472.03
2022-12-08T00:32:04.958Z,94474.69
2022-12-08T00:34:32.540Z,94479.75
2022-12-08T00:36:59.599Z,94483.22
2022-12-08T00:39:26.748Z,94475.19
2022-12-08T00:42:12.098Z,94477.59
2022-12-08T00:44:40.251Z,94481.56
2022-12-08T00:47:07.330Z,94472.22
2022-12-08T00:49:34.352Z,94470.38
2022-12-08T00:52:01.814Z,94477.03
2022-12-08T00:54:28.900Z,94483.22
2022-12-08T00:56:55.863Z,94468.28
2022-12-08T00:59:22.876Z,94469.09
2022-12-08T01:01:49.889Z,94468.28
2022-12-08T01:04:19.298Z,94467.72
2022-12-08T01:06:47.254Z,94469.28
2022-12-08T01:09:15.780Z,94472.75
2022-12-08T01:11:44.772Z,94471.97
2022-12-08T01:14:12.666Z,94464.28
2022-12-08T01:16:41.839Z,94473.88
2022-12-08T01:19:11.094Z,94464.03
2022-12-08T01:21:38.196Z,94453.34
2022-12-08T01:24:06.016Z,94461.91
2022-12-08T01:26:33.109Z,94459.75
2022-12-08T01:29:00.244Z,94450.44
2022-12-08T01:31:27.377Z,94451.47
2022-12-08T01:33:54.442Z,94461.88
2022-12-08T01:36:26.734Z,94453.91
2022-12-08T01:38:54.817Z,94451.75
2022-12-08T01:41:24.492Z,94449.88
2022-12-08T01:44:38.391Z,94444.78
2022-12-08T01:47:05.714Z,94440.00
2022-12-08T01:49:35.824Z,94446.69
2022-12-08T01:52:18.963Z,94449.06
2022-12-08T01:54:55.686Z,94439.97
2022-12-08T01:57:37.915Z,94433.03
2022-12-08T02:00:10.821Z,94434.38
2022-12-08T02:03:14.681Z,94432.22
2022-12-08T02:05:42.147Z,94442.41
2022-12-08T02:08:13.080Z,94440.00
2022-12-08T02:10:43.254Z,94441.59
2022-12-08T02:13:15.109Z,94438.69
2022-12-08T02:16:17.477Z,94432.56
2022-12-08T02:19:34.290Z,94423.75
2022-12-08T02:22:19.299Z,94427.50
2022-12-08T02:25:08.533Z,94424.06
2022-12-08T02:27:47.940Z,94417.41
2022-12-08T02:30:45.485Z,94417.66
2022-12-08T02:33:35.192Z,94427.81
2022-12-08T02:36:32.209Z,94443.53
2022-12-08T02:39:35.354Z,94437.41
2022-12-08T02:42:33.220Z,94440.59
2022-12-08T02:45:30.318Z,94426.47
2022-12-08T02:47:58.998Z,94428.91
2022-12-08T02:50:26.859Z,94431.81
2022-12-08T02:52:54.389Z,94425.69
2022-12-08T02:55:46.510Z,94422.47
2022-12-08T02:58:41.796Z,94414.72
2022-12-08T03:02:04.046Z,94420.31
2022-12-08T03:04:46.346Z,94425.66
2022-12-08T03:07:28.320Z,94427.78
2022-12-08T03:10:01.582Z,94417.41
2022-12-08T03:12:36.471Z,94429.41
2022-12-08T03:15:09.912Z,94413.97
2022-12-08T03:17:39.405Z,94415.03
2022-12-08T03:20:11.450Z,94416.09
2022-12-08T03:22:41.747Z,94421.41
2022-12-08T03:25:13.682Z,94423.53
2022-12-08T03:27:41.401Z,94411.56
2022-12-08T03:30:09.874Z,94418.22
2022-12-08T03:33:00.030Z,94424.06
2022-12-08T03:35:31.159Z,94423.53
2022-12-08T03:38:12.658Z,94423.53
2022-12-08T03:40:39.598Z,94431.00
2022-12-08T03:43:06.775Z,94426.72
2022-12-08T03:45:34.102Z,94431.00
2022-12-08T03:48:01.156Z,94430.44
2022-12-08T03:50:28.111Z,94433.38
2022-12-08T03:52:55.135Z,94428.88
2022-12-08T03:55:22.168Z,94420.31
2022-12-08T03:57:49.089Z,94428.34
2022-12-08T04:00:17.257Z,94425.13
2022-12-08T04:02:44.474Z,94429.94
2022-12-08T04:05:11.545Z,94445.66
2022-12-08T04:07:38.595Z,94445.94
2022-12-08T04:10:06.736Z,94453.41
2022-12-08T04:12:35.851Z,94440.63
2022-12-08T04:15:02.902Z,94434.75
2022-12-08T04:17:30.004Z,94431.81
2022-12-08T04:19:57.185Z,94431.53
2022-12-08T04:22:24.255Z,94441.13
2022-12-08T04:24:51.395Z,94427.53
2022-12-08T04:27:18.544Z,94438.19
2022-12-08T04:29:45.682Z,94448.31
2022-12-08T04:32:14.943Z,94448.59
2022-12-08T04:34:41.989Z,94460.31
2022-12-08T04:37:09.235Z,94437.66
2022-12-08T04:39:36.267Z,94444.31
2022-12-08T04:42:03.506Z,94443.00
2022-12-08T04:44:30.553Z,94431.78
2022-12-08T04:46:57.636Z,94451.25
2022-12-08T04:49:24.845Z,94439.00
2022-12-08T04:51:51.819Z,94452.84
2022-12-08T04:54:18.846Z,94435.50
2022-12-08T04:56:45.880Z,94447.00
2022-12-08T04:59:12.935Z,94451.78
2022-12-08T05:01:39.943Z,94455.47
2022-12-08T05:04:06.973Z,94463.75
2022-12-08T05:06:33.876Z,94467.75
2022-12-08T05:09:00.779Z,94455.47
2022-12-08T05:11:53.029Z,94446.91
2022-12-08T05:14:20.074Z,94463.41
2022-12-08T05:16:48.843Z,94460.22
2022-12-08T05:19:16.432Z,94460.25
2022-12-08T05:21:43.737Z,94456.53
2022-12-08T05:24:10.887Z,94465.63
2022-12-08T05:26:37.874Z,94478.97
2022-12-08T05:29:13.256Z,94471.75
2022-12-08T05:31:40.352Z,94481.09
2022-12-08T05:34:07.377Z,94475.25
2022-12-08T05:36:34.460Z,94468.84
2022-12-08T05:39:01.502Z,94483.78
2022-12-08T05:41:30.659Z,94483.22
2022-12-08T05:43:57.714Z,94485.91
2022-12-08T05:46:24.983Z,94480.56
2022-12-08T05:48:52.106Z,94478.44
2022-12-08T05:51:21.444Z,94490.69
2022-12-08T05:53:50.715Z,94494.94
2022-12-08T05:56:18.433Z,94498.16
2022-12-08T05:58:46.154Z,94502.94
2022-12-08T06:01:30.454Z,94507.47
2022-12-08T06:03:59.492Z,94505.59
2022-12-08T06:06:27.033Z,94504.00
2022-12-08T06:08:54.582Z,94500.81
2022-12-08T06:11:27.971Z,94499.22
2022-12-08T06:13:56.932Z,94506.41
2022-12-08T06:16:26.499Z,94504.53
2022-12-08T06:18:53.864Z,94517.88
2022-12-08T06:21:21.301Z,94516.56
2022-12-08T06:23:51.728Z,94511.50
2022-12-08T06:26:19.203Z,94518.16
2022-12-08T06:28:46.286Z,94514.41
2022-12-08T06:31:22.843Z,94511.50
2022-12-08T06:33:50.384Z,94505.63
2022-12-08T06:36:18.974Z,94496.84
2022-12-08T06:38:46.926Z,94492.81
2022-12-08T06:41:16.407Z,94503.75
2022-12-08T06:43:43.506Z,94494.94
2022-12-08T06:46:13.564Z,94500.00
2022-12-08T06:48:40.873Z,94497.84
2022-12-08T06:51:14.171Z,94497.59
2022-12-08T06:53:41.738Z,94504.78
2022-12-08T06:56:09.563Z,94498.63
2022-12-08T06:58:36.943Z,94516.72
2022-12-08T07:01:13.914Z,94503.84
2022-12-08T07:03:44.355Z,94521.50
2022-12-08T07:06:17.790Z,94506.47
2022-12-08T07:08:44.919Z,94519.56
2022-12-08T07:11:18.014Z,94524.63
2022-12-08T07:13:48.377Z,94520.34
2022-12-08T07:16:15.893Z,94534.78
2022-12-08T07:18:44.418Z,94542.47
2022-12-08T07:21:15.325Z,94534.13
2022-12-08T07:23:43.752Z,94539.72
2022-12-08T07:26:13.562Z,94532.19
2022-12-08T07:28:43.197Z,94549.25
2022-12-08T07:31:19.296Z,94529.91
2022-12-08T07:33:47.410Z,94529.69
2022-12-08T07:36:15.583Z,94545.19
2022-12-08T07:38:43.859Z,94532.41
2022-12-08T07:41:16.334Z,94536.38
2022-12-08T07:43:43.812Z,94537.16
2022-12-08T07:46:15.767Z,94531.78
2022-12-08T07:48:43.376Z,94544.63
2022-12-08T07:51:13.370Z,94538.22
2022-12-08T07:53:42.852Z,94543.31
2022-12-08T07:56:12.196Z,94540.38
2022-12-08T07:58:40.616Z,94539.81
2022-12-08T08:01:19.958Z,94536.59
2022-12-08T08:03:47.252Z,94536.34
2022-12-08T08:06:14.701Z,94536.09
2022-12-08T08:08:41.903Z,94542.53
2022-12-08T08:11:17.411Z,94544.13
2022-12-08T08:13:48.730Z,94539.81
2022-12-08T08:16:16.008Z,94536.63
2022-12-08T08:18:43.927Z,94541.41
2022-12-08T08:23:58.417Z,94540.81
2022-12-08T08:26:25.702Z,94548.78
2022-12-08T08:28:52.747Z,94545.50
2022-12-08T08:31:25.512Z,94544.44
2022-12-08T08:33:53.230Z,94537.44
2022-12-08T08:36:22.188Z,94542.25
2022-12-08T08:38:49.325Z,94526.22
2022-12-08T08:41:16.412Z,94527.75
2022-12-08T08:43:43.689Z,94530.44
2022-12-08T08:46:11.297Z,94527.19
2022-12-08T08:48:38.636Z,94544.56
2022-12-08T08:51:13.676Z,94540.22
2022-12-08T08:53:41.195Z,94535.38
2022-12-08T08:56:19.458Z,94528.91
2022-12-08T08:58:48.969Z,94533.63
2022-12-08T09:01:19.400Z,94533.38
2022-12-08T09:03:47.007Z,94517.31
2022-12-08T09:06:17.591Z,94517.88
2022-12-08T09:08:48.333Z,94527.47
2022-12-08T09:11:15.471Z,94522.56
2022-12-08T09:13:48.332Z,94517.63
2022-12-08T09:16:15.591Z,94524.69
2022-12-08T09:18:42.885Z,94522.94
2022-12-08T09:21:13.511Z,94526.59
2022-12-08T09:23:40.945Z,94521.13
2022-12-08T09:26:08.573Z,94518.31
2022-12-08T09:28:36.044Z,94515.13
2022-12-08T09:31:03.229Z,94508.50
2022-12-08T09:33:30.499Z,94509.88
2022-12-08T09:36:01.637Z,94505.94
2022-12-08T09:38:28.684Z,94507.44
2022-12-08T09:40:56.058Z,94501.44
2022-12-08T09:43:55.421Z,94496.28
2022-12-08T09:46:22.773Z,94483.41
2022-12-08T09:48:57.843Z,94476.69
2022-12-08T09:51:27.079Z,94471.22
2022-12-08T09:54:00.420Z,94474.13
2022-12-08T09:56:31.307Z,94470.16
2022-12-08T09:59:03.038Z,94459.13
2022-12-08T10:01:40.014Z,94455.63
2022-12-08T10:04:27.796Z,94445.84
2022-12-08T10:07:13.647Z,94458.34
2022-12-08T10:09:50.216Z,94457.44
2022-12-08T10:12:44.477Z,94451.47
2022-12-08T10:15:38.124Z,94455.63
2022-12-08T10:18:13.301Z,94446.06
2022-12-08T10:20:45.418Z,94444.47
2022-12-08T10:23:37.974Z,94445.47
2022-12-08T10:26:14.695Z,94432.38
2022-12-08T10:28:45.228Z,94428.03
2022-12-08T10:31:24.224Z,94432.69
2022-12-08T10:34:00.229Z,94424.44
2022-12-08T10:36:58.370Z,94424.81
2022-12-08T10:40:10.469Z,94420.72
2022-12-08T10:42:52.828Z,94424.75
2022-12-08T10:45:46.309Z,94426.97
2022-12-08T10:48:18.574Z,94412.22
2022-12-08T10:50:57.283Z,94410.28
2022-12-08T10:53:33.442Z,94414.56
2022-12-08T10:56:16.628Z,94407.84
2022-12-08T10:58:47.471Z,94396.53
2022-12-08T11:01:37.089Z,94396.06
2022-12-08T11:04:07.744Z,94392.84
2022-12-08T11:06:42.405Z,94400.31
2022-12-08T11:09:48.331Z,94384.50
2022-12-08T15:35:54.467Z,94327.78
2022-12-08T15:38:25.615Z,94329.56
2022-12-08T15:40:53.677Z,94331.91
2022-12-08T15:43:21.160Z,94336.25
2022-12-08T15:45:58.499Z,94322.47
2022-12-08T15:48:28.545Z,94327.97
2022-12-08T15:50:56.498Z,94332.13
2022-12-08T15:53:23.678Z,94325.16
2022-12-08T15:56:26.203Z,94335.56
2022-12-08T15:58:53.504Z,94325.38
2022-12-08T16:01:21.896Z,94324.13
2022-12-08T16:09:40.904Z,94349.38
2022-12-08T16:13:19.985Z,94343.81
2022-12-08T16:18:24.154Z,94359.38
2022-12-08T16:23:45.934Z,94360.19
2022-12-08T16:29:03.184Z,94341.75
2022-12-08T16:31:30.147Z,94348.59
2022-12-08T16:33:57.224Z,94359.06
2022-12-08T16:36:24.118Z,94346.56
2022-12-08T16:38:51.137Z,94341.63
2022-12-08T16:41:37.085Z,94349.97
2022-12-08T16:44:06.184Z,94370.50
2022-12-08T16:46:34.913Z,94354.38
2022-12-08T16:49:03.088Z,94336.66
2022-12-08T16:51:30.105Z,94351.41
2022-12-08T16:53:59.792Z,94342.84
2022-12-08T16:56:32.564Z,94365.63
2022-12-08T16:59:01.396Z,94325.09
2022-12-08T17:01:28.520Z,94333.81
2022-12-08T17:04:29.271Z,94348.59
2022-12-08T17:06:42.688Z,94347.94
2022-12-08T17:09:09.696Z,94351.28
2022-12-08T17:11:43.045Z,94359.00
2022-12-08T17:14:14.789Z,94349.81
2022-12-08T17:16:42.601Z,94363.16
2022-12-08T17:19:09.907Z,94363.75
2022-12-08T17:21:36.920Z,94353.81
2022-12-08T17:24:04.556Z,94361.56
2022-12-08T17:26:31.630Z,94372.50
2022-12-08T17:29:01.184Z,94372.69
2022-12-08T17:31:30.845Z,94366.94
2022-12-08T17:34:03.539Z,94360.97
2022-12-08T17:36:30.528Z,94372.91
2022-12-08T17:38:59.733Z,94370.59
2022-12-08T17:41:27.041Z,94375.09
2022-12-08T17:43:54.023Z,94365.44
2022-12-08T17:46:22.082Z,94379.75
2022-12-08T17:48:49.627Z,94382.66
2022-12-08T17:51:16.996Z,94385.84
2022-12-08T17:53:44.141Z,94385.22
2022-12-08T17:56:16.937Z,94384.53
2022-12-08T17:58:44.910Z,94377.47
2022-12-08T18:01:12.749Z,94377.78
2022-12-08T18:03:40.174Z,94390.09
2022-12-08T18:06:12.652Z,94395.78
2022-12-08T18:08:40.171Z,94388.41
2022-12-08T18:11:16.186Z,94392.38
2022-12-08T18:13:43.354Z,94396.56
2022-12-08T18:16:10.568Z,94394.38
2022-12-08T18:18:37.618Z,94386.81
2022-12-08T18:21:09.660Z,94392.97
2022-12-08T18:23:48.009Z,94396.56
2022-12-08T18:26:16.784Z,94386.78
2022-12-08T18:28:44.179Z,94397.34
2022-12-08T18:31:14.216Z,94397.72
2022-12-08T18:33:43.295Z,94402.91
2022-12-08T18:36:13.636Z,94409.06
2022-12-08T18:38:40.771Z,94402.13
2022-12-08T18:41:09.493Z,94404.31
2022-12-08T18:43:37.655Z,94401.94
2022-12-08T18:46:08.165Z,94421.81
2022-12-08T18:48:38.121Z,94410.47
2022-12-08T18:51:11.550Z,94399.66
2022-12-08T18:53:39.893Z,94398.53
2022-12-08T18:56:07.743Z,94389.09
2022-12-08T18:58:35.537Z,94400.28
2022-12-08T19:01:02.573Z,94389.75
2022-12-08T19:03:29.789Z,94383.31
2022-12-08T19:06:07.177Z,94389.66
2022-12-08T19:08:34.479Z,94394.22
2022-12-08T19:11:01.640Z,94400.50
2022-12-08T19:13:28.712Z,94395.53
2022-12-08T19:15:55.969Z,94398.91
2022-12-08T19:18:23.067Z,94415.22
2022-12-08T19:20:50.410Z,94401.31
2022-12-08T19:23:17.472Z,94406.00
2022-12-08T19:25:44.488Z,94408.09
2022-12-08T19:28:11.450Z,94419.91
2022-12-08T19:30:38.430Z,94430.97
2022-12-08T19:33:05.627Z,94435.09
2022-12-08T19:35:32.617Z,94425.97
2022-12-08T19:37:59.564Z,94428.31
2022-12-08T19:40:44.892Z,94459.06
2022-12-08T19:43:52.745Z,94436.09
2022-12-08T19:46:19.835Z,94437.19
2022-12-08T19:48:46.913Z,94445.38
2022-12-08T19:51:13.956Z,94451.47
2022-12-08T19:53:47.288Z,94446.09
2022-12-08T19:56:14.809Z,94433.13
2022-12-08T19:58:41.714Z,94447.34
2022-12-08T20:01:08.695Z,94443.31
2022-12-08T20:03:35.821Z,94455.38
2022-12-08T20:06:02.935Z,94440.22
2022-12-08T20:08:30.035Z,94456.25
2022-12-08T20:10:59.256Z,94472.94
2022-12-08T20:13:41.355Z,94490.63
2022-12-08T20:16:09.942Z,94492.81
2022-12-08T20:18:41.069Z,94490.03
2022-12-08T20:21:09.070Z,94479.69
2022-12-08T20:23:36.663Z,94478.25
2022-12-08T20:26:08.281Z,94471.25
2022-12-08T20:28:36.126Z,94476.78
2022-12-08T20:31:03.627Z,94466.78
2022-12-08T20:33:31.128Z,94460.41
2022-12-08T20:36:00.130Z,94447.31
2022-12-08T20:38:28.291Z,94450.31
2022-12-08T20:40:55.779Z,94463.22
2022-12-08T20:43:22.806Z,94469.44
2022-12-08T20:45:49.885Z,94476.47
2022-12-08T20:48:17.032Z,94478.13
2022-12-08T20:50:44.467Z,94485.22
2022-12-08T20:53:11.576Z,94465.38
2022-12-08T20:55:41.700Z,94466.38
2022-12-08T20:58:09.016Z,94470.25
2022-12-08T21:00:36.038Z,94467.72
2022-12-08T21:03:03.099Z,94470.66
2022-12-08T21:05:30.579Z,94482.03
2022-12-08T21:07:57.834Z,94479.91
2022-12-08T21:10:24.933Z,94485.84
2022-12-08T21:12:52.193Z,94491.50
2022-12-08T21:15:19.271Z,94492.88
2022-12-08T21:17:46.504Z,94501.88
2022-12-08T21:20:13.667Z,94486.41
2022-12-08T21:22:40.881Z,94496.38
2022-12-08T21:25:09.260Z,94488.66
2022-12-08T21:27:37.877Z,94485.19
2022-12-08T21:30:06.854Z,94488.06
2022-12-08T21:32:34.419Z,94487.00
2022-12-08T21:35:01.911Z,94488.06
2022-12-08T21:37:29.260Z,94478.16
2022-12-08T21:39:56.283Z,94476.22
2022-12-08T21:42:41.815Z,94486.03
2022-12-08T21:45:09.982Z,94496.75
2022-12-08T21:47:37.307Z,94488.66
2022-12-08T21:50:05.741Z,94483.75
2022-12-08T21:52:37.211Z,94476.78
2022-12-08T21:55:05.387Z,94482.66
2022-12-08T21:57:32.639Z,94487.22
2022-12-08T21:59:59.959Z,94478.50
2022-12-08T22:02:27.375Z,94491.16
2022-12-08T22:04:54.543Z,94484.66
2022-12-08T22:07:22.074Z,94513.59
2022-12-08T22:09:49.512Z,94490.09
2022-12-08T22:12:17.026Z,94506.00
2022-12-08T22:14:44.436Z,94496.88
2022-12-08T22:17:11.739Z,94507.06
2022-12-08T22:19:38.830Z,94509.47
2022-12-08T22:22:06.014Z,94498.75
2022-12-08T22:24:32.997Z,94488.28
2022-12-08T22:27:00.363Z,94498.41
2022-12-08T22:29:27.438Z,94493.06
2022-12-08T22:31:54.668Z,94491.16
2022-12-08T22:34:21.715Z,94502.75
2022-12-08T22:36:49.206Z,94480.25
2022-12-08T22:39:16.213Z,94498.25
2022-12-08T22:41:43.453Z,94486.75
2022-12-08T22:44:12.304Z,94499.75
2022-12-08T22:46:39.397Z,94490.41
2022-12-08T22:49:06.494Z,94514.28
2022-12-08T22:51:36.751Z,94490.50
2022-12-08T22:54:04.431Z,94488.59
2022-12-08T22:56:31.784Z,94487.50
2022-12-08T22:58:58.987Z,94498.72
2022-12-08T23:01:32.227Z,94496.50
2022-12-08T23:04:00.225Z,94486.91
2022-12-08T23:06:28.808Z,94469.25
2022-12-08T23:08:56.629Z,94476.75
2022-12-08T23:11:26.669Z,94482.69
2022-12-08T23:13:53.696Z,94471.41
2022-12-08T23:16:20.863Z,94480.53
2022-12-08T23:18:47.970Z,94470.94
2022-12-08T23:21:17.761Z,94485.63
2022-12-08T23:23:45.104Z,94476.53
2022-12-08T23:26:27.561Z,94482.34
2022-12-08T23:29:04.112Z,94479.38
2022-12-08T23:31:31.439Z,94485.25
2022-12-08T23:33:58.713Z,94470.75
2022-12-08T23:36:28.764Z,94494.78
2022-12-08T23:38:56.091Z,94484.22
2022-12-08T23:41:23.187Z,94477.94
2022-12-08T23:43:51.916Z,94482.47
2022-12-08T23:46:20.934Z,94487.59
2022-12-08T23:48:48.096Z,94489.22
2022-12-08T23:51:15.504Z,94498.63
2022-12-08T23:53:42.840Z,94491.09
2022-12-08T23:56:12.803Z,94483.09
2022-12-08T23:58:40.643Z,94480.41
